Maplesville, Alabama
Current Conditions -  °F | °C
As of 8:53 PM on Sunday 23 Nov 2014 (Local Time) from KEET Reporting Station
Overcast Overcast  
Wind Chill: 62°   Ceiling: 1300
Heat Index: 62°   Visibility: 10mi
Dew Point: 58°   Wind: 10mph
Humidity: 86%   Direction: 180°S
Pressure: 29.68"   Gusts: 21mph
Location:  32.79°N, 86.87°W
Report Text: KEET 240253Z AUTO 18009G18KT 10SM BKN013 OVC019 17/14 A2968 RMK AO2 SLP048 T01670144 51019
Loading
Personal Weather Stations






























Interactive Weather Map New forecast layout! Learn more

10-Day Weather Forecast

Advertisements
Track Severe Weather on mobile